createdAt,value
2023-02-03T00:00:32.137Z,1.88
2023-02-03T00:02:59.217Z,3.30
2023-02-03T00:05:26.304Z,3.95
2023-02-03T00:07:53.714Z,4.32
2023-02-03T00:10:21.598Z,2.25
2023-02-03T00:12:52.923Z,3.13
2023-02-03T00:15:20.691Z,2.83
2023-02-03T00:17:47.860Z,3.10
2023-02-03T00:20:15.352Z,2.85
2023-02-03T00:22:43.370Z,4.18
2023-02-03T00:25:10.837Z,4.00
2023-02-03T00:27:37.944Z,2.03
2023-02-03T00:30:05.753Z,3.05
2023-02-03T00:32:32.978Z,3.25
2023-02-03T00:35:00.111Z,3.30
2023-02-03T00:37:27.699Z,3.53
2023-02-03T00:39:54.748Z,4.07
2023-02-03T00:42:21.764Z,4.72
2023-02-03T00:44:49.210Z,3.40
2023-02-03T00:47:16.306Z,3.45
2023-02-03T00:49:43.323Z,3.88
2023-02-03T00:52:10.871Z,4.47
2023-02-03T00:54:38.932Z,6.60
2023-02-03T00:57:05.994Z,3.90
2023-02-03T00:59:33.397Z,4.30
2023-02-03T01:02:00.576Z,5.07
2023-02-03T01:04:27.772Z,3.10
2023-02-03T01:07:00.103Z,3.40
2023-02-03T01:09:27.240Z,6.82
2023-02-03T01:11:54.620Z,4.40
2023-02-03T01:14:22.109Z,4.40
2023-02-03T01:16:49.265Z,6.47
2023-02-03T01:19:18.074Z,2.30
2023-02-03T01:21:45.372Z,3.10
2023-02-03T01:24:15.606Z,2.75
2023-02-03T01:26:42.607Z,7.25
2023-02-03T01:29:11.416Z,3.33
2023-02-03T01:31:40.013Z,5.32
2023-02-03T01:34:13.161Z,3.63
2023-02-03T01:36:42.463Z,3.80
2023-02-03T01:39:13.368Z,3.72
2023-02-03T01:41:43.083Z,5.88
2023-02-03T01:44:51.393Z,3.00
2023-02-03T01:47:26.707Z,2.55
2023-02-03T01:50:07.389Z,2.13
2023-02-03T01:52:34.755Z,3.53
2023-02-03T01:55:04.224Z,2.75
2023-02-03T01:57:40.860Z,3.28
2023-02-03T02:00:12.186Z,2.92
2023-02-03T02:02:44.441Z,1.75
2023-02-03T02:05:34.612Z,4.47
2023-02-03T02:08:02.253Z,7.15
2023-02-03T02:10:30.164Z,4.38
2023-02-03T02:12:57.936Z,5.07
2023-02-03T02:15:47.976Z,3.95
2023-02-03T02:18:39.693Z,2.13
2023-02-03T02:21:09.937Z,5.32
2023-02-03T02:23:45.356Z,2.40
2023-02-03T02:26:34.147Z,5.97
2023-02-03T02:29:04.219Z,3.42
2023-02-03T02:31:56.967Z,3.35
2023-02-03T02:34:51.097Z,2.97
2023-02-03T02:37:39.354Z,3.80
2023-02-03T02:40:14.776Z,4.75
2023-02-03T02:43:02.792Z,2.88
2023-02-03T02:45:52.825Z,2.83
2023-02-03T02:48:27.593Z,2.15
2023-02-03T02:50:56.632Z,4.63
2023-02-03T02:53:26.524Z,3.03
2023-02-03T02:55:54.407Z,2.33
2023-02-03T02:58:21.537Z,3.67
2023-02-03T03:00:48.938Z,1.73
2023-02-03T03:03:17.058Z,2.72
2023-02-03T03:05:47.978Z,4.03
2023-02-03T03:08:17.646Z,4.03
2023-02-03T03:10:44.748Z,3.47
2023-02-03T03:13:15.445Z,5.03
2023-02-03T03:15:42.899Z,3.22
2023-02-03T03:18:18.981Z,3.63
2023-02-03T03:20:46.454Z,4.38
2023-02-03T03:23:42.600Z,4.13
2023-02-03T03:26:21.622Z,2.90
2023-02-03T03:29:21.993Z,2.92
2023-02-03T03:31:49.420Z,3.17
2023-02-03T03:34:16.546Z,5.20
2023-02-03T03:36:48.897Z,2.13
2023-02-03T03:39:18.976Z,3.20
2023-02-03T03:42:12.023Z,2.80
2023-02-03T03:45:09.277Z,2.60
2023-02-03T03:47:57.633Z,1.73
2023-02-03T03:50:30.674Z,3.38
2023-02-03T03:52:58.224Z,3.03
2023-02-03T03:55:25.229Z,1.92
2023-02-03T03:57:59.370Z,4.75
2023-02-03T04:00:28.239Z,2.72
2023-02-03T04:02:55.988Z,2.78
2023-02-03T04:05:23.696Z,2.92
2023-02-03T04:07:50.909Z,2.90
2023-02-03T04:10:38.481Z,4.47
2023-02-03T04:13:05.916Z,4.43
2023-02-03T04:15:33.050Z,3.85
2023-02-03T04:18:01.688Z,2.10
2023-02-03T04:20:29.634Z,4.13
2023-02-03T04:22:57.036Z,4.07
2023-02-03T04:25:24.293Z,3.45
2023-02-03T04:27:51.527Z,4.00
2023-02-03T04:30:18.770Z,3.83
2023-02-03T04:32:46.668Z,1.98
2023-02-03T04:35:13.858Z,4.65
2023-02-03T04:37:44.331Z,3.80
2023-02-03T04:40:12.514Z,4.78
2023-02-03T04:42:42.956Z,2.85
2023-02-03T04:45:10.827Z,2.83
2023-02-03T04:47:38.219Z,4.18
2023-02-03T04:50:05.544Z,4.82
2023-02-03T04:52:32.591Z,4.35
2023-02-03T04:54:59.697Z,3.35
2023-02-03T04:57:26.889Z,2.92
2023-02-03T04:59:53.929Z,3.20
2023-02-03T05:02:21.081Z,2.95
2023-02-03T05:04:48.236Z,4.97
2023-02-03T05:07:15.310Z,4.57
2023-02-03T05:09:42.481Z,5.47
2023-02-03T05:12:09.608Z,2.60
2023-02-03T05:14:36.785Z,4.07
2023-02-03T05:17:04.079Z,2.95
2023-02-03T05:19:31.217Z,3.67
2023-02-03T05:21:58.588Z,4.60
2023-02-03T05:24:25.847Z,3.20
2023-02-03T05:26:53.121Z,3.92
2023-02-03T05:29:20.344Z,3.33
2023-02-03T05:31:47.714Z,6.20
2023-02-03T05:34:14.992Z,4.57
2023-02-03T05:36:42.867Z,3.50
2023-02-03T05:39:11.273Z,4.32
2023-02-03T05:41:54.896Z,3.53
2023-02-03T05:44:24.273Z,5.38
2023-02-03T05:46:53.022Z,4.25
2023-02-03T05:49:20.200Z,3.40
2023-02-03T05:51:47.591Z,7.20
2023-02-03T05:54:15.340Z,7.28
2023-02-03T05:56:42.657Z,3.40
2023-02-03T05:59:09.717Z,3.13
2023-02-03T06:01:37.028Z,3.25
2023-02-03T06:04:04.600Z,3.05
2023-02-03T06:06:34.821Z,3.72
2023-02-03T06:09:02.484Z,4.10
2023-02-03T06:11:29.847Z,5.22
2023-02-03T06:13:58.680Z,3.08
2023-02-03T06:16:26.947Z,4.75
2023-02-03T06:18:54.505Z,4.03
2023-02-03T06:21:22.259Z,5.00
2023-02-03T06:23:49.400Z,2.95
2023-02-03T06:26:16.530Z,4.07
2023-02-03T06:28:43.704Z,4.43
2023-02-03T06:31:11.125Z,3.55
2023-02-03T06:33:38.319Z,3.72
2023-02-03T06:36:05.774Z,5.80
2023-02-03T06:38:32.962Z,3.47
2023-02-03T06:41:00.501Z,5.72
2023-02-03T06:43:27.590Z,4.90
2023-02-03T06:45:54.825Z,3.55
2023-02-03T06:48:21.952Z,4.78
2023-02-03T06:50:49.055Z,4.07
2023-02-03T06:53:16.294Z,3.35
2023-02-03T06:55:43.478Z,2.90
2023-02-03T06:58:13.004Z,3.63
2023-02-03T07:00:42.211Z,7.37
2023-02-03T07:03:09.336Z,3.47
2023-02-03T07:05:37.076Z,4.53
2023-02-03T07:08:04.246Z,3.38
2023-02-03T07:10:31.465Z,5.25
2023-02-03T07:13:03.927Z,5.35
2023-02-03T07:15:31.149Z,9.00
2023-02-03T07:17:58.393Z,5.70
2023-02-03T07:20:29.518Z,6.50
2023-02-03T07:23:00.310Z,3.70
2023-02-03T07:25:27.684Z,3.15
2023-02-03T07:27:54.786Z,5.28
2023-02-03T07:30:22.253Z,2.80
2023-02-03T07:32:50.179Z,4.13
2023-02-03T07:35:17.507Z,3.80
2023-02-03T07:37:44.809Z,2.70
2023-02-03T07:40:13.216Z,4.47
2023-02-03T07:42:47.285Z,4.93
2023-02-03T07:45:15.742Z,5.03
2023-02-03T07:47:43.107Z,2.58
2023-02-03T07:50:14.250Z,6.47
2023-02-03T07:52:44.483Z,4.15
2023-02-03T07:55:14.688Z,3.35
2023-02-03T07:57:43.816Z,7.38
2023-02-03T08:00:12.653Z,4.78
2023-02-03T08:02:42.636Z,2.38
2023-02-03T08:05:13.046Z,5.72
2023-02-03T08:10:09.935Z,7.00
2023-02-03T08:12:37.349Z,4.10
2023-02-03T08:15:05.061Z,3.95
2023-02-03T08:17:33.712Z,5.30
2023-02-03T08:20:01.091Z,3.35
2023-02-03T08:22:28.184Z,6.28
2023-02-03T08:24:55.161Z,5.55
2023-02-03T08:27:22.925Z,3.72
2023-02-03T08:29:50.230Z,2.72
2023-02-03T08:32:19.096Z,3.20
2023-02-03T08:34:46.540Z,4.28
2023-02-03T08:37:13.994Z,4.97
2023-02-03T08:39:41.105Z,3.35
2023-02-03T08:42:08.352Z,3.30
2023-02-03T08:44:35.824Z,3.20
2023-02-03T08:47:03.143Z,4.18
2023-02-03T08:49:30.808Z,3.90
2023-02-03T08:51:58.095Z,3.45
2023-02-03T08:54:25.518Z,3.55
2023-02-03T08:56:52.806Z,7.85
2023-02-03T08:59:19.918Z,3.92
2023-02-03T09:01:48.639Z,5.32
2023-02-03T09:04:19.605Z,4.05
2023-02-03T09:06:48.008Z,4.82
2023-02-03T09:09:15.608Z,5.85
2023-02-03T09:11:43.198Z,5.20
2023-02-03T09:14:12.627Z,2.72
2023-02-03T09:16:39.758Z,2.70
2023-02-03T09:19:07.361Z,3.38
2023-02-03T09:21:42.985Z,6.10
2023-02-03T09:24:16.547Z,4.35
2023-02-03T09:26:43.906Z,4.75
2023-02-03T09:29:11.106Z,3.22
2023-02-03T09:31:38.554Z,6.80
2023-02-03T09:34:05.719Z,4.07
2023-02-03T09:36:32.888Z,5.95
2023-02-03T09:39:00.322Z,4.68
2023-02-03T09:42:03.876Z,5.03
2023-02-03T09:44:53.061Z,3.67
2023-02-03T09:47:29.004Z,4.13
2023-02-03T09:50:01.877Z,4.00
2023-02-03T09:52:37.527Z,6.55
2023-02-03T09:55:33.929Z,7.00
2023-02-03T09:58:13.207Z,5.10
2023-02-03T10:00:45.049Z,6.32
2023-02-03T10:03:22.562Z,5.15
2023-02-03T10:06:28.302Z,4.15
2023-02-03T10:09:20.494Z,4.05
2023-02-03T10:11:50.636Z,4.63
2023-02-03T10:14:37.100Z,6.65
2023-02-03T10:17:08.479Z,2.95
2023-02-03T10:20:05.624Z,4.88
2023-02-03T10:22:35.067Z,4.47
2023-02-03T10:25:26.442Z,4.00
2023-02-03T10:27:58.903Z,6.20
2023-02-03T10:30:32.587Z,4.20
2023-02-03T10:33:13.136Z,4.70
2023-02-03T10:35:51.372Z,4.63
2023-02-03T10:39:23.277Z,4.95
2023-02-03T10:41:50.755Z,5.72
2023-02-03T10:44:17.966Z,4.28
2023-02-03T10:46:45.852Z,4.13
2023-02-03T10:49:14.111Z,4.05
2023-02-03T10:51:47.629Z,6.80
2023-02-03T10:54:32.456Z,3.72
2023-02-03T10:57:20.028Z,15.25
2023-02-03T10:59:47.783Z,4.97
2023-02-03T11:02:26.343Z,3.88
2023-02-03T11:05:22.080Z,7.45
2023-02-03T11:07:49.312Z,4.35
2023-02-03T11:10:35.632Z,3.95
2023-02-03T11:13:21.546Z,5.68
2023-02-03T11:15:53.485Z,7.25
2023-02-03T11:18:36.065Z,5.18
2023-02-03T11:21:18.988Z,3.55
2023-02-03T11:23:52.489Z,6.65
2023-02-03T11:26:21.721Z,4.82
2023-02-03T11:28:51.692Z,5.22
2023-02-03T11:31:27.344Z,4.05
2023-02-03T11:33:56.921Z,9.55
2023-02-03T11:36:27.322Z,4.03
2023-02-03T11:41:26.753Z,4.05
2023-02-03T11:43:53.771Z,6.20
2023-02-03T11:46:21.096Z,5.03
2023-02-03T11:49:32.236Z,3.30
2023-02-03T11:52:13.349Z,8.98
2023-02-03T11:55:17.822Z,5.20
2023-02-03T11:58:06.955Z,4.72
2023-02-03T12:00:46.390Z,6.18
2023-02-03T12:03:19.415Z,4.30
2023-02-03T12:06:00.445Z,4.53
2023-02-03T12:08:52.431Z,4.50
2023-02-03T12:11:30.078Z,6.75
2023-02-03T12:14:35.173Z,4.85
2023-02-03T12:17:23.403Z,5.43
2023-02-03T12:20:07.067Z,7.00
2023-02-03T12:23:05.417Z,6.63
2023-02-03T12:26:02.520Z,3.05
2023-02-03T12:28:34.213Z,7.05
2023-02-03T12:31:27.676Z,6.03
2023-02-03T12:33:59.614Z,6.32
2023-02-03T12:36:33.180Z,7.88
2023-02-03T12:39:21.495Z,5.07
2023-02-03T12:42:22.961Z,7.35
2023-02-03T12:45:01.493Z,6.80
2023-02-03T12:47:57.186Z,12.68
2023-02-03T12:50:27.323Z,5.18
2023-02-03T12:55:41.848Z,5.82
2023-02-03T12:58:20.923Z,7.53
2023-02-03T13:00:55.223Z,6.60
2023-02-03T13:03:22.538Z,6.85
2023-02-03T13:06:09.610Z,7.78
2023-02-03T13:08:58.724Z,7.82
2023-02-03T13:11:32.411Z,9.77
2023-02-03T13:14:06.287Z,12.38
2023-02-03T13:16:39.827Z,35.40
2023-02-03T13:19:11.896Z,18.52
2023-02-03T13:21:39.139Z,9.63
2023-02-03T13:24:06.565Z,3.92
2023-02-03T13:27:00.928Z,11.70
2023-02-03T13:29:42.999Z,6.03
2023-02-03T13:32:13.392Z,6.78
2023-02-03T13:37:47.949Z,13.13
2023-02-03T13:40:33.465Z,7.60
2023-02-03T13:43:03.614Z,18.70
2023-02-03T13:45:45.341Z,6.70
2023-02-03T13:48:20.865Z,5.28
2023-02-03T13:50:48.474Z,8.20
2023-02-03T13:53:19.704Z,7.55
2023-02-03T13:56:00.646Z,5.05
2023-02-03T13:58:32.334Z,6.18
2023-02-03T14:01:00.607Z,7.82
2023-02-03T14:03:27.930Z,4.78
2023-02-03T14:05:58.906Z,6.45
2023-02-03T14:08:26.150Z,7.00
2023-02-03T14:11:31.011Z,7.22
2023-02-03T14:14:12.810Z,6.35
2023-02-03T14:16:55.386Z,7.75
2023-02-03T14:19:22.566Z,6.85
2023-02-03T14:21:53.440Z,8.25
2023-02-03T14:24:20.790Z,9.98
2023-02-03T14:26:50.674Z,11.00
2023-02-03T14:29:32.558Z,6.38
2023-02-03T14:32:00.633Z,7.53
2023-02-03T14:34:43.649Z,10.45
2023-02-03T14:37:13.966Z,7.78
2023-02-03T14:40:19.757Z,5.88
2023-02-03T14:43:04.877Z,10.60
2023-02-03T14:46:00.033Z,6.78
2023-02-03T14:51:32.550Z,5.00
2023-02-03T14:54:31.201Z,4.32
2023-02-03T14:57:23.509Z,6.72
2023-02-03T14:59:55.420Z,7.05
2023-02-03T15:02:26.054Z,6.97
2023-02-03T15:05:13.819Z,12.85
2023-02-03T15:07:49.868Z,6.63
2023-02-03T15:10:30.960Z,4.63
2023-02-03T15:12:58.709Z,8.57
2023-02-03T15:15:30.353Z,4.20
2023-02-03T15:18:19.299Z,4.72
2023-02-03T15:20:46.775Z,6.47
2023-02-03T15:23:31.049Z,4.50
2023-02-03T15:26:02.736Z,5.07
2023-02-03T15:28:30.378Z,5.95
2023-02-03T15:31:04.160Z,5.45
2023-02-03T15:33:31.804Z,5.03
2023-02-03T15:36:02.248Z,3.85
2023-02-03T15:40:59.132Z,5.28
2023-02-03T15:43:38.380Z,4.30
2023-02-03T15:46:13.276Z,3.85
2023-02-03T15:48:55.407Z,4.45
2023-02-03T15:51:24.090Z,5.85
2023-02-03T15:53:59.154Z,4.72
2023-02-03T15:56:44.381Z,4.88
2023-02-03T15:59:46.515Z,6.13
2023-02-03T16:02:16.175Z,4.45
2023-02-03T16:04:43.724Z,5.55
2023-02-03T16:07:22.994Z,4.88
2023-02-03T16:09:54.115Z,3.78
2023-02-03T16:12:31.376Z,6.88
2023-02-03T16:14:59.884Z,4.47
2023-02-03T16:17:26.972Z,5.28
2023-02-03T16:20:15.139Z,3.90
2023-02-03T16:22:43.125Z,4.38
2023-02-03T16:25:36.856Z,7.30
2023-02-03T16:28:30.987Z,4.57
2023-02-03T16:31:22.245Z,5.13
2023-02-03T16:34:09.325Z,5.57
2023-02-03T16:37:02.060Z,4.65
2023-02-03T16:39:47.666Z,4.88
2023-02-03T16:42:40.062Z,6.70
2023-02-03T16:45:36.317Z,5.05
2023-02-03T16:48:22.567Z,4.82
2023-02-03T16:50:59.189Z,4.32
2023-02-03T16:53:31.581Z,5.22
2023-02-03T16:56:00.746Z,5.93
2023-02-03T16:58:28.315Z,7.18
2023-02-03T17:00:55.828Z,5.03
2023-02-03T17:03:25.702Z,4.50
2023-02-03T17:05:53.599Z,4.95
2023-02-03T17:08:23.651Z,8.27
2023-02-03T17:10:50.997Z,6.72
2023-02-03T17:13:19.112Z,7.28
2023-02-03T17:15:48.656Z,7.60
2023-02-03T17:18:15.900Z,9.17
2023-02-03T17:20:43.696Z,6.50
2023-02-03T17:23:11.180Z,4.40
2023-02-03T17:25:38.786Z,5.15
2023-02-03T17:28:06.757Z,4.75
2023-02-03T17:30:35.443Z,4.55
2023-02-03T17:33:03.836Z,5.90
2023-02-03T17:35:31.362Z,5.97
2023-02-03T17:37:59.383Z,8.85
2023-02-03T17:54:14.625Z,7.22
2023-02-03T17:56:47.648Z,5.85
2023-02-03T17:59:15.413Z,7.72
2023-02-03T18:01:42.653Z,5.85
2023-02-03T18:04:09.723Z,6.38
2023-02-03T18:06:37.327Z,4.97
2023-02-03T18:09:09.071Z,5.13
2023-02-03T18:11:36.675Z,5.32
2023-02-03T18:14:05.595Z,5.70
2023-02-03T18:16:33.667Z,5.97
2023-02-03T18:19:01.251Z,21.27
2023-02-03T18:21:28.646Z,24.60
2023-02-03T18:23:59.632Z,10.38
2023-02-03T18:26:28.891Z,6.68
2023-02-03T18:28:56.298Z,6.90
2023-02-03T18:31:25.338Z,7.63
2023-02-03T18:33:52.567Z,8.55
2023-02-03T18:36:20.018Z,8.77
2023-02-03T18:38:47.419Z,6.82
2023-02-03T18:41:15.480Z,6.38
2023-02-03T18:43:43.049Z,4.97
2023-02-03T18:46:11.626Z,5.85
2023-02-03T18:48:38.799Z,6.05
2023-02-03T18:51:10.078Z,8.18
2023-02-03T18:53:38.530Z,6.68
2023-02-03T18:56:09.780Z,6.55
2023-02-03T18:58:40.209Z,6.60
2023-02-03T19:01:09.910Z,8.57
2023-02-03T19:06:14.260Z,5.82
2023-02-03T19:08:41.730Z,5.47
2023-02-03T19:11:08.964Z,12.27
2023-02-03T19:13:36.370Z,9.60
2023-02-03T19:16:03.713Z,7.80
2023-02-03T19:18:33.668Z,7.57
2023-02-03T19:21:01.031Z,8.35
2023-02-03T19:23:28.106Z,7.10
2023-02-03T19:25:55.266Z,7.00
2023-02-03T19:28:30.552Z,5.80
2023-02-03T19:31:11.836Z,7.10
2023-02-03T19:33:39.202Z,5.38
2023-02-03T19:36:06.741Z,5.57
2023-02-03T19:38:34.248Z,6.20
2023-02-03T19:41:01.920Z,5.50
2023-02-03T19:43:32.504Z,7.03
2023-02-03T19:46:00.326Z,6.50
2023-02-03T19:48:27.633Z,6.38
2023-02-03T19:50:54.669Z,5.75
2023-02-03T19:53:25.447Z,8.15
2023-02-03T19:55:57.942Z,11.23
2023-02-03T19:58:25.543Z,6.22
2023-02-03T20:00:52.776Z,6.88
2023-02-03T20:03:20.083Z,7.80
2023-02-03T20:05:47.583Z,6.05
2023-02-03T20:08:16.862Z,5.80
2023-02-03T20:10:45.530Z,4.72
2023-02-03T20:13:13.140Z,5.88
2023-02-03T20:15:43.231Z,6.00
2023-02-03T20:18:13.409Z,4.63
2023-02-03T20:23:08.623Z,6.20
2023-02-03T20:25:35.762Z,4.95
2023-02-03T20:28:03.893Z,7.00
2023-02-03T20:30:31.776Z,5.80
2023-02-03T20:32:59.261Z,6.45
2023-02-03T20:35:26.848Z,5.22
2023-02-03T20:37:54.066Z,5.45
2023-02-03T20:40:23.199Z,5.97
2023-02-03T20:42:51.285Z,6.78
2023-02-03T20:45:19.697Z,6.55
2023-02-03T20:47:47.012Z,6.22
2023-02-03T20:50:19.875Z,7.60
2023-02-03T20:52:48.283Z,7.65
2023-02-03T20:55:20.287Z,7.45
2023-02-03T20:57:51.698Z,7.63
2023-02-03T21:00:24.074Z,7.30
2023-02-03T21:03:12.161Z,5.40
2023-02-03T21:05:42.206Z,11.50
2023-02-03T21:08:19.162Z,7.18
2023-02-03T21:10:48.027Z,6.90
2023-02-03T21:13:26.853Z,9.38
2023-02-03T21:15:55.587Z,10.13
2023-02-03T21:18:50.616Z,7.50
2023-02-03T21:21:25.091Z,8.18
2023-02-03T21:23:52.604Z,8.27
2023-02-03T21:26:30.301Z,10.38
2023-02-03T21:29:01.394Z,8.18
2023-02-03T21:31:33.140Z,11.13
2023-02-03T21:34:02.968Z,9.98
2023-02-03T21:36:36.864Z,11.63
2023-02-03T21:39:18.135Z,10.45
2023-02-03T21:41:47.642Z,10.00
2023-02-03T21:44:28.354Z,10.03
2023-02-03T21:46:55.622Z,9.52
2023-02-03T21:49:22.669Z,10.63
2023-02-03T21:51:50.268Z,10.57
2023-02-03T21:54:27.895Z,11.70
2023-02-03T21:56:55.303Z,11.25
2023-02-03T21:59:29.704Z,11.05
2023-02-03T22:01:58.772Z,15.05
2023-02-03T22:04:28.376Z,11.27
2023-02-03T22:06:55.966Z,11.77
2023-02-03T22:09:24.712Z,11.98
2023-02-03T22:11:52.482Z,12.82
2023-02-03T22:14:22.567Z,12.77
2023-02-03T22:16:50.140Z,10.55
2023-02-03T22:19:17.781Z,12.88
2023-02-03T22:21:45.140Z,11.13
2023-02-03T22:24:12.690Z,11.63
2023-02-03T22:26:39.820Z,11.48
2023-02-03T22:29:07.004Z,15.05
2023-02-03T22:31:34.605Z,15.68
2023-02-03T22:34:01.728Z,14.57
2023-02-03T22:36:28.850Z,13.77
2023-02-03T22:38:56.243Z,12.18
2023-02-03T22:41:23.343Z,10.52
2023-02-03T22:43:50.561Z,12.02
2023-02-03T22:46:17.866Z,10.45
2023-02-03T22:48:45.132Z,12.73
2023-02-03T22:51:12.351Z,11.80
2023-02-03T22:53:42.067Z,14.70
2023-02-03T22:56:10.747Z,13.27
2023-02-03T22:58:37.974Z,10.68
2023-02-03T23:01:05.562Z,11.93
2023-02-03T23:03:32.984Z,9.50
2023-02-03T23:06:00.427Z,13.25
2023-02-03T23:08:27.952Z,14.15
2023-02-03T23:10:56.030Z,10.38
2023-02-03T23:13:23.371Z,12.60
2023-02-03T23:15:50.922Z,16.27
2023-02-03T23:18:17.986Z,12.82
2023-02-03T23:20:45.055Z,12.68
2023-02-03T23:23:15.579Z,13.07
2023-02-03T23:28:09.683Z,16.45
2023-02-03T23:30:40.371Z,10.77
2023-02-03T23:33:08.128Z,11.50
2023-02-03T23:35:47.213Z,12.32
2023-02-03T23:38:15.044Z,12.13
2023-02-03T23:40:45.391Z,11.65
2023-02-03T23:43:12.663Z,10.48
2023-02-03T23:45:40.573Z,11.77
2023-02-03T23:48:08.170Z,10.85
2023-02-03T23:50:35.336Z,11.77
2023-02-03T23:53:02.524Z,14.13
2023-02-03T23:55:31.360Z,12.00
2023-02-03T23:57:58.953Z,13.07
